Time;durP1;ratioP1;P1;durP2;ratioP2;P2;SDS_P1;SDS_P2;PMS_P1;PMS_P2;Temp;Humidity;BMP_temperature;BMP_pressure;BME280_temperature;BME280_humidity;BME280_pressure;Samples;Min_cycle;Max_cycle;Signal;HPM_P1;HPM_P2
2023/03/05 00:01:36;;;;;;;;;;;;;;;10.16;60.15;98371.53;5018000;28;19924;-86
2023/03/05 00:04:01;;;;;;;;;;;;;;;10.14;59.96;98369.03;5034298;28;19924;-87
2023/03/05 00:06:27;;;;;;;;;;;;;;;10.10;60.00;98374.63;5033843;28;19916;-86
2023/03/05 00:08:53;;;;;;;;;;;;;;;10.08;60.09;98369.53;5034493;28;19917;-83
2023/03/05 00:11:19;;;;;;;;;;;;;;;10.07;60.07;98370.50;5034291;28;19924;-84
2023/03/05 00:13:44;;;;;;;;;;;;;;;10.03;60.04;98366.47;5034323;28;19917;-84
2023/03/05 00:16:10;;;;;;;;;;;;;;;10.00;60.10;98363.28;5051543;28;20338;-84
2023/03/05 00:18:36;;;;;;;;;;;;;;;9.96;60.04;98363.53;5033987;28;19916;-83
2023/03/05 00:21:01;;;;;;;;;;;;;;;9.92;60.18;98362.09;5033668;28;20015;-83
2023/03/05 00:23:26;;;;;;;;;;;;;;;9.90;60.02;98355.38;5034104;28;19917;-83
2023/03/05 00:25:52;;;;;;;;;;;;;;;9.88;60.11;98342.47;5034105;28;19963;-81
2023/03/05 00:28:17;;;;;;;;;;;;;;;9.84;60.13;98346.25;5034029;28;19916;-83
2023/03/05 00:30:43;;;;;;;;;;;;;;;9.83;60.25;98347.19;5033990;28;20292;-83
2023/03/05 00:33:08;;;;;;;;;;;;;;;9.81;60.06;98346.50;5034668;28;19917;-83
2023/03/05 00:35:41;;;;;;;;;;;;;;;9.79;60.31;98345.78;5046825;28;19917;-83
2023/03/05 00:38:06;;;;;;;;;;;;;;;9.75;60.14;98350.41;5048391;28;19931;-84
2023/03/05 00:40:33;;;;;;;;;;;;;;;9.71;60.10;98340.34;5041480;28;20423;-83
2023/03/05 00:42:59;;;;;;;;;;;;;;;9.68;60.23;98346.63;5055681;28;20398;-82
2023/03/05 00:45:24;;;;;;;;;;;;;;;9.65;60.28;98346.88;5055489;28;19917;-83
2023/03/05 00:47:49;;;;;;;;;;;;;;;9.62;60.31;98338.47;5055331;28;19952;-84
2023/03/05 00:50:15;;;;;;;;;;;;;;;9.59;60.33;98334.31;5020925;28;20012;-83
2023/03/05 00:52:40;;;;;;;;;;;;;;;9.55;60.13;98328.53;5037409;28;20410;-85
2023/03/05 00:55:05;;;;;;;;;;;;;;;9.54;59.97;98328.66;5055285;28;20388;-82
2023/03/05 00:57:31;;;;;;;;;;;;;;;9.49;60.28;98328.16;5037589;28;19924;-81
2023/03/05 00:59:56;;;;;;;;;;;;;;;9.46;60.10;98326.66;5037119;28;20012;-81
2023/03/05 01:02:21;;;;;;;;;;;;;;;9.42;60.27;98327.81;5055235;28;19917;-80
2023/03/05 01:04:47;;;;;;;;;;;;;;;9.39;60.30;98333.28;5037323;28;19975;-80
2023/03/05 01:07:12;;;;;;;;;;;;;;;9.35;60.35;98330.09;5055786;28;20011;-81
2023/03/05 01:09:37;;;;;;;;;;;;;;;9.33;60.33;98324.19;5020710;28;20343;-81
2023/03/05 01:12:03;;;;;;;;;;;;;;;9.29;60.18;98319.31;5037112;28;19917;-81
2023/03/05 01:14:28;;;;;;;;;;;;;;;9.27;60.30;98316.84;5036966;28;19917;-83
2023/03/05 01:16:53;;;;;;;;;;;;;;;9.24;60.03;98320.50;5025285;28;19967;-82
2023/03/05 01:19:19;;;;;;;;;;;;;;;9.22;60.11;98319.78;5017427;28;19924;-81
2023/03/05 01:21:44;;;;;;;;;;;;;;;9.18;60.38;98317.53;5017470;28;19917;-82
2023/03/05 01:24:09;;;;;;;;;;;;;;;9.16;60.18;98320.25;5017532;28;20411;-81
2023/03/05 01:26:35;;;;;;;;;;;;;;;9.14;60.31;98322.16;5017233;28;19917;-85
2023/03/05 01:29:00;;;;;;;;;;;;;;;9.12;60.28;98320.63;5034863;28;20343;-86
2023/03/05 01:31:26;;;;;;;;;;;;;;;9.09;60.10;98319.06;5017447;28;19924;-83
2023/03/05 01:33:51;;;;;;;;;;;;;;;9.09;60.24;98318.25;5034706;28;19990;-83
2023/03/05 01:36:17;;;;;;;;;;;;;;;9.05;60.28;98328.06;5017213;28;20376;-83
2023/03/05 01:38:42;;;;;;;;;;;;;;;9.02;60.29;98320.50;5017121;28;19929;-84
2023/03/05 01:41:08;;;;;;;;;;;;;;;8.99;60.19;98315.53;5016984;28;20450;-83
2023/03/05 01:43:33;;;;;;;;;;;;;;;8.98;60.25;98309.50;5034029;28;20388;-82
2023/03/05 01:46:17;;;;;;;;;;;;;;;8.97;60.57;98301.81;5016286;28;19951;-82
2023/03/05 01:48:44;;;;;;;;;;;;;;;8.95;60.34;98299.31;5034651;28;19917;-83
2023/03/05 01:51:09;;;;;;;;;;;;;;;8.93;60.36;98295.97;5034318;28;19917;-85
2023/03/05 01:53:34;;;;;;;;;;;;;;;8.91;60.22;98303.09;5033216;28;19917;-84
2023/03/05 01:56:00;;;;;;;;;;;;;;;8.88;60.40;98304.16;5033690;28;19917;-84
2023/03/05 01:58:25;;;;;;;;;;;;;;;8.87;59.97;98299.91;5016518;28;20295;-83
2023/03/05 02:00:51;;;;;;;;;;;;;;;8.86;60.34;98303.44;5032993;28;20026;-83
2023/03/05 02:03:17;;;;;;;;;;;;;;;8.84;60.35;98304.53;5033342;28;19917;-83
2023/03/05 02:05:43;;;;;;;;;;;;;;;8.83;59.98;98301.06;5032854;28;20015;-83
2023/03/05 02:08:14;;;;;;;;;;;;;;;8.82;60.05;98298.59;5032953;28;19983;-83
2023/03/05 02:10:52;;;;;;;;;;;;;;;8.82;60.10;98307.25;5034646;28;19913;-85
2023/03/05 02:13:24;;;;;;;;;;;;;;;8.81;60.02;98305.56;5032750;28;19952;-85
2023/03/05 02:15:49;;;;;;;;;;;;;;;8.80;60.32;98309.09;5034930;28;19916;-85
2023/03/05 02:18:15;;;;;;;;;;;;;;;8.81;60.03;98304.75;5036594;28;19983;-85
2023/03/05 02:20:47;;;;;;;;;;;;;;;8.79;60.11;98311.81;5036169;28;19946;-87
2023/03/05 02:23:13;;;;;;;;;;;;;;;8.76;60.06;98310.31;5019614;28;19917;-84
2023/03/05 02:25:38;;;;;;;;;;;;;;;8.75;60.20;98300.81;5019360;28;19917;-84
2023/03/05 02:28:08;;;;;;;;;;;;;;;8.74;59.99;98306.97;5019279;28;20007;-85
2023/03/05 02:30:34;;;;;;;;;;;;;;;8.75;60.29;98305.22;5035544;28;19917;-86
2023/03/05 02:32:59;;;;;;;;;;;;;;;8.73;60.03;98312.28;5036050;28;20299;-86
2023/03/05 02:35:26;;;;;;;;;;;;;;;8.71;60.24;98316.78;5035846;28;19920;-86
2023/03/05 02:37:51;;;;;;;;;;;;;;;8.68;60.33;98312.63;5035864;28;19927;-86
2023/03/05 02:40:16;;;;;;;;;;;;;;;8.67;60.04;98308.38;5018940;28;19933;-88
2023/03/05 02:42:42;;;;;;;;;;;;;;;8.68;60.18;98303.06;5019340;28;19923;-86
2023/03/05 02:45:08;;;;;;;;;;;;;;;8.69;60.32;98309.09;5053447;28;19917;-86
2023/03/05 02:47:33;;;;;;;;;;;;;;;8.68;60.28;98304.81;5018738;28;19917;-86
2023/03/05 02:49:58;;;;;;;;;;;;;;;8.66;60.16;98307.53;5036121;28;19924;-90
2023/03/05 02:52:24;;;;;;;;;;;;;;;8.66;60.36;98306.72;5035797;28;20384;-90
2023/03/05 02:54:50;;;;;;;;;;;;;;;8.65;60.09;98299.84;5019057;28;19917;-91
2023/03/05 02:57:15;;;;;;;;;;;;;;;8.62;59.97;98295.72;5034744;28;19917;-85
2023/03/05 02:59:40;;;;;;;;;;;;;;;8.61;60.24;98295.84;5035386;28;19976;-83
2023/03/05 03:02:06;;;;;;;;;;;;;;;8.58;59.95;98294.28;5018775;28;19920;-83
2023/03/05 03:04:31;;;;;;;;;;;;;;;8.55;60.00;98297.13;5018466;28;20316;-83
2023/03/05 03:06:56;;;;;;;;;;;;;;;8.55;60.18;98297.13;5053172;28;19956;-83
2023/03/05 03:09:22;;;;;;;;;;;;;;;8.52;60.20;98292.13;5052911;28;19916;-83
2023/03/05 03:11:47;;;;;;;;;;;;;;;8.50;60.26;98289.66;5035008;28;20418;-83
2023/03/05 03:14:12;;;;;;;;;;;;;;;8.49;60.20;98292.38;5052745;28;19917;-85
2023/03/05 03:16:37;;;;;;;;;;;;;;;8.46;60.26;98301.25;5052553;28;20406;-85
2023/03/05 03:19:03;;;;;;;;;;;;;;;8.44;59.97;98305.72;5033831;28;19916;-85
2023/03/05 03:21:28;;;;;;;;;;;;;;;8.42;60.02;98291.97;5034541;28;19916;-83
2023/03/05 03:23:53;;;;;;;;;;;;;;;8.42;59.96;98286.78;5052551;28;19923;-84
2023/03/05 03:26:19;;;;;;;;;;;;;;;8.41;59.90;98289.47;5034579;28;19917;-83
2023/03/05 03:28:44;;;;;;;;;;;;;;;8.40;60.09;98290.44;5017881;28;20016;-83
2023/03/05 03:31:09;;;;;;;;;;;;;;;8.36;60.08;98282.03;5052521;28;19928;-82
2023/03/05 03:33:35;;;;;;;;;;;;;;;8.34;59.98;98289.13;5017506;28;19916;-82
2023/03/05 03:36:00;;;;;;;;;;;;;;;8.33;59.57;98279.66;5034936;28;19924;-83
2023/03/05 03:38:25;;;;;;;;;;;;;;;8.32;59.72;98286.63;5018062;28;19920;-83
2023/03/05 03:40:51;;;;;;;;;;;;;;;8.29;59.91;98276.47;5052092;28;19925;-83
2023/03/05 03:43:16;;;;;;;;;;;;;;;8.30;59.86;98282.47;5052417;28;19924;-83
2023/03/05 03:45:42;;;;;;;;;;;;;;;8.27;59.82;98280.94;5034648;28;19921;-83
2023/03/05 03:48:07;;;;;;;;;;;;;;;8.26;59.95;98281.06;5033885;28;19917;-83
2023/03/05 03:50:32;;;;;;;;;;;;;;;8.24;59.87;98280.31;5052714;28;20399;-82
2023/03/05 03:52:58;;;;;;;;;;;;;;;8.23;59.84;98297.72;5034774;28;19917;-82
2023/03/05 03:55:23;;;;;;;;;;;;;;;8.23;59.85;98296.88;5034387;28;19917;-82
2023/03/05 03:57:48;;;;;;;;;;;;;;;8.20;59.96;98292.72;5034472;28;19959;-84
2023/03/05 04:00:14;;;;;;;;;;;;;;;8.20;59.61;98295.34;5018108;28;19917;-83
2023/03/05 04:02:39;;;;;;;;;;;;;;;8.18;59.61;98297.22;5034706;28;19921;-83
2023/03/05 04:05:05;;;;;;;;;;;;;;;8.18;59.99;98291.22;5034517;28;19917;-84
2023/03/05 04:07:30;;;;;;;;;;;;;;;8.17;60.05;98292.13;5053834;28;19916;-84
2023/03/05 04:09:55;;;;;;;;;;;;;;;8.18;60.19;98297.22;5038036;28;19916;-83
2023/03/05 04:12:21;;;;;;;;;;;;;;;8.18;59.79;98299.00;5038288;28;20307;-85
2023/03/05 04:14:46;;;;;;;;;;;;;;;8.18;60.07;98292.03;5021172;28;19956;-84
2023/03/05 04:17:12;;;;;;;;;;;;;;;8.17;59.77;98299.94;5019658;28;19933;-84
2023/03/05 04:19:37;;;;;;;;;;;;;;;8.15;60.08;98298.28;5002127;28;20281;-84
2023/03/05 04:22:02;;;;;;;;;;;;;;;8.17;59.83;98294.75;5018339;28;19917;-84
2023/03/05 04:24:28;;;;;;;;;;;;;;;8.17;60.29;98292.13;5018065;28;20289;-84
2023/03/05 04:26:53;;;;;;;;;;;;;;;8.16;59.81;98296.53;5018458;28;19995;-84
2023/03/05 04:29:18;;;;;;;;;;;;;;;8.14;59.86;98299.22;5035095;28;20380;-84
2023/03/05 04:31:44;;;;;;;;;;;;;;;8.13;60.02;98299.34;5018573;28;19979;-84
2023/03/05 04:34:09;;;;;;;;;;;;;;;8.13;59.72;98297.56;5017877;28;19917;-85
2023/03/05 04:36:35;;;;;;;;;;;;;;;8.11;59.50;98294.25;5001592;28;20439;-84
2023/03/05 04:39:01;;;;;;;;;;;;;;;8.11;59.71;98294.25;4998039;28;19921;-84
2023/03/05 04:41:26;;;;;;;;;;;;;;;8.11;59.48;98298.59;4997921;28;19921;-84
2023/03/05 04:43:51;;;;;;;;;;;;;;;8.12;59.52;98295.88;4998272;28;20405;-84
2023/03/05 04:46:16;;;;;;;;;;;;;;;8.13;59.91;98294.13;5014544;28;19925;-82
2023/03/05 04:48:42;;;;;;;;;;;;;;;8.14;59.65;98296.63;5014881;28;19921;-82
2023/03/05 04:51:07;;;;;;;;;;;;;;;8.16;59.50;98293.91;5014553;28;19925;-83
2023/03/05 04:53:32;;;;;;;;;;;;;;;8.17;59.31;98303.34;4998459;28;20277;-83
2023/03/05 04:56:00;;;;;;;;;;;;;;;8.21;59.67;98296.19;4998071;28;19918;-83
2023/03/05 04:58:25;;;;;;;;;;;;;;;8.24;59.69;98299.38;5014550;28;19918;-84
2023/03/05 05:00:51;;;;;;;;;;;;;;;8.27;59.15;98300.91;4997818;28;19921;-85
2023/03/05 05:03:16;;;;;;;;;;;;;;;8.32;59.60;98304.84;4997987;28;19918;-79
2023/03/05 05:05:41;;;;;;;;;;;;;;;8.38;59.40;98305.31;4997992;28;19948;-80
2023/03/05 05:08:06;;;;;;;;;;;;;;;8.44;59.32;98307.50;5013867;28;20301;-80
2023/03/05 05:10:32;;;;;;;;;;;;;;;8.50;59.19;98315.66;5015153;28;19975;-80
2023/03/05 05:12:57;;;;;;;;;;;;;;;8.54;59.15;98308.47;5015767;28;20270;-81
2023/03/05 05:15:22;;;;;;;;;;;;;;;8.61;58.92;98314.06;4997858;28;19921;-82
2023/03/05 05:17:48;;;;;;;;;;;;;;;8.92;58.38;98316.91;5013298;28;19917;-82
2023/03/05 05:20:13;;;;;;;;;;;;;;;9.60;56.83;98329.00;5039640;28;20399;-82
2023/03/05 05:22:39;;;;;;;;;;;;;;;10.24;55.54;98323.97;5043660;28;19949;-81
2023/03/05 05:25:04;;;;;;;;;;;;;;;10.73;54.34;98321.72;5019644;28;20354;-80
2023/03/05 05:27:29;;;;;;;;;;;;;;;11.16;53.49;98318.09;5033439;28;20043;-80
2023/03/05 05:29:55;;;;;;;;;;;;;;;11.50;52.48;98320.44;5034143;28;19917;-80
2023/03/05 05:32:21;;;;;;;;;;;;;;;11.94;51.68;98323.59;5033870;28;20368;-80
2023/03/05 05:34:47;;;;;;;;;;;;;;;12.22;50.88;98326.34;5017046;28;19917;-80
2023/03/05 05:37:12;;;;;;;;;;;;;;;12.81;49.67;98332.38;5017293;28;20076;-80
2023/03/05 05:39:37;;;;;;;;;;;;;;;13.33;48.66;98335.41;5033370;28;19968;-81
2023/03/05 05:42:02;;;;;;;;;;;;;;;13.85;47.45;98332.25;5036002;28;20016;-80
2023/03/05 05:44:28;;;;;;;;;;;;;;;14.39;45.85;98336.66;5016994;28;19976;-80
2023/03/05 05:46:53;;;;;;;;;;;;;;;14.89;44.81;98330.84;5033249;28;19924;-84
2023/03/05 05:49:18;;;;;;;;;;;;;;;15.37;43.60;98334.72;5034690;28;19964;-83
2023/03/05 05:51:44;;;;;;;;;;;;;;;15.88;42.13;98332.13;5033117;28;20433;-83
2023/03/05 05:54:12;;;;;;;;;;;;;;;16.39;40.87;98333.84;5016560;28;19917;-82
2023/03/05 05:56:38;;;;;;;;;;;;;;;16.89;40.12;98338.16;5033269;28;20062;-81
2023/03/05 05:59:03;;;;;;;;;;;;;;;17.35;38.79;98340.19;5032961;28;20380;-81
2023/03/05 06:01:29;;;;;;;;;;;;;;;17.77;38.02;98338.19;5034293;28;19917;-81
2023/03/05 06:03:55;;;;;;;;;;;;;;;17.82;37.61;98339.31;5033143;28;19921;-81
2023/03/05 06:06:20;;;;;;;;;;;;;;;18.03;37.20;98333.44;5032885;28;20310;-81
2023/03/05 06:08:46;;;;;;;;;;;;;;;18.01;36.92;98335.44;5034151;28;20331;-79
2023/03/05 06:11:11;;;;;;;;;;;;;;;18.05;37.20;98338.56;5033197;28;20446;-80
2023/03/05 06:13:36;;;;;;;;;;;;;;;18.09;36.68;98334.56;5033186;28;19932;-80
2023/03/05 06:16:03;;;;;;;;;;;;;;;18.11;36.69;98340.50;5033793;28;19921;-82
2023/03/05 06:18:28;;;;;;;;;;;;;;;18.13;36.44;98343.78;5016139;28;19980;-81
2023/03/05 06:20:55;;;;;;;;;;;;;;;18.04;36.63;98344.81;5032917;28;19921;-82
2023/03/05 06:23:20;;;;;;;;;;;;;;;18.05;36.44;98335.91;5032938;28;19921;-82
2023/03/05 06:25:45;;;;;;;;;;;;;;;18.16;36.32;98342.63;5016963;28;20285;-81
2023/03/05 06:28:11;;;;;;;;;;;;;;;18.29;36.21;98337.56;5033472;28;19921;-81
2023/03/05 06:30:38;;;;;;;;;;;;;;;18.37;35.85;98349.88;5031889;28;20376;-83
2023/03/05 06:33:05;;;;;;;;;;;;;;;18.41;35.79;98341.44;5032600;28;19917;-81
2023/03/05 06:35:30;;;;;;;;;;;;;;;18.61;35.39;98340.94;5033407;28;19917;-80
2023/03/05 06:37:58;;;;;;;;;;;;;;;19.00;34.37;98341.78;5034366;28;20411;-80
2023/03/05 06:40:23;;;;;;;;;;;;;;;19.12;34.44;98341.16;5031934;28;20442;-81
2023/03/05 06:42:49;;;;;;;;;;;;;;;19.49;33.46;98346.53;4999095;28;19920;-83
2023/03/05 06:45:14;;;;;;;;;;;;;;;20.11;32.50;98347.09;4999296;28;19917;-83
2023/03/05 06:47:39;;;;;;;;;;;;;;;20.09;32.50;98343.81;5015676;28;19924;-82
2023/03/05 06:50:05;;;;;;;;;;;;;;;20.30;32.22;98338.50;5033125;28;19951;-83
2023/03/05 06:52:32;;;;;;;;;;;;;;;20.83;31.64;98335.53;5002387;28;19967;-84
2023/03/05 06:54:57;;;;;;;;;;;;;;;21.54;30.91;98337.19;5036186;28;19922;-89
2023/03/05 06:57:23;;;;;;;;;;;;;;;22.02;29.92;98336.34;5054232;28;19927;-89
2023/03/05 06:59:49;;;;;;;;;;;;;;;22.59;29.27;98335.00;5036237;28;19924;-78
2023/03/05 07:02:14;;;;;;;;;;;;;;;23.15;28.79;98338.28;5035525;28;19917;-79
2023/03/05 07:04:40;;;;;;;;;;;;;;;23.44;28.32;98325.50;5033900;28;19932;-84
2023/03/05 07:07:05;;;;;;;;;;;;;;;24.23;27.24;98331.50;5018605;28;20320;-85
2023/03/05 07:09:30;;;;;;;;;;;;;;;24.97;26.71;98326.41;5019165;28;19970;-77
2023/03/05 07:11:55;;;;;;;;;;;;;;;24.50;30.47;98323.31;5052912;28;19917;-79
2023/03/05 07:14:21;;;;;;;;;;;;;;;24.37;30.71;98318.88;5052764;28;19920;-80
2023/03/05 07:16:46;;;;;;;;;;;;;;;23.67;28.91;98320.50;5018077;28;20387;-77
2023/03/05 07:19:11;;;;;;;;;;;;;;;23.01;29.78;98323.31;5052405;28;19921;-79
2023/03/05 07:21:37;;;;;;;;;;;;;;;22.38;31.41;98322.72;5018521;28;19921;-79
2023/03/05 07:24:02;;;;;;;;;;;;;;;;;;5039494;28;19923;-88
2023/03/05 07:26:29;;;;;;;;;;;;;;;21.84;32.66;98311.16;5058770;28;19917;-90
2023/03/05 07:28:55;;;;;;;;;;;;;;;21.69;33.27;98300.66;5058223;28;19917;-90
2023/03/05 07:31:21;;;;;;;;;;;;;;;21.66;32.29;98302.91;5022621;28;19924;-90
2023/03/05 07:33:46;;;;;;;;;;;;;;;21.46;31.62;98305.47;5040124;28;19917;-86
2023/03/05 07:36:12;;;;;;;;;;;;;;;21.12;31.48;98302.63;5025781;28;19916;-93
2023/03/05 07:38:37;;;;;;;;;;;;;;;21.02;34.03;98306.69;5026846;28;19931;-88
2023/03/05 07:41:03;;;;;;;;;;;;;;;21.02;31.96;98302.19;5037412;28;20012;-85
2023/03/05 07:43:54;;;;;;;;;;;;;;;21.07;36.81;98291.78;5030498;28;19992;-85
2023/03/05 07:46:21;;;;;;;;;;;;;;;21.45;35.87;98296.66;5063112;28;19917;-83
2023/03/05 07:48:46;;;;;;;;;;;;;;;22.32;33.19;98294.28;5022980;28;19921;-78
2023/03/05 07:51:14;;;;;;;;;;;;;;;22.42;31.83;98290.41;5056676;28;19917;-78
2023/03/05 07:53:40;;;;;;;;;;;;;;;23.60;30.00;98281.59;5038682;28;19939;-81
2023/03/05 07:56:05;;;;;;;;;;;;;;;23.60;32.15;98276.25;5038998;28;19917;-84
2023/03/05 07:58:31;;;;;;;;;;;;;;;23.44;30.76;98275.69;5021833;28;20330;-79
2023/03/05 08:00:56;;;;;;;;;;;;;;;23.61;29.39;98278.72;5056625;28;19974;-77
2023/03/05 08:03:21;;;;;;;;;;;;;;;23.69;29.25;98264.31;5056249;28;20019;-76
2023/03/05 08:05:46;;;;;;;;;;;;;;;23.60;28.62;98261.06;5056009;28;20401;-79
2023/03/05 08:08:12;;;;;;;;;;;;;;;23.46;28.47;98270.97;5041138;28;19921;-83
2023/03/05 08:10:37;;;;;;;;;;;;;;;23.29;28.53;98270.66;5022253;28;19913;-85
2023/03/05 08:13:02;;;;;;;;;;;;;;;23.14;28.51;98264.75;5023462;28;19917;-83
2023/03/05 08:15:29;;;;;;;;;;;;;;;23.14;28.51;98259.44;5021778;28;19955;-82
2023/03/05 08:17:54;;;;;;;;;;;;;;;23.08;29.00;98258.41;5038835;28;19920;-79
2023/03/05 08:20:20;;;;;;;;;;;;;;;23.23;30.95;98254.69;5040159;28;19920;-87
2023/03/05 08:22:45;;;;;;;;;;;;;;;23.15;30.90;98253.09;5034167;28;19917;-88
2023/03/05 08:25:10;;;;;;;;;;;;;;;23.36;30.31;98244.00;5029938;28;19921;-90
2023/03/05 08:27:39;;;;;;;;;;;;;;;23.44;29.87;98258.91;5021612;28;19924;-89
2023/03/05 08:30:05;;;;;;;;;;;;;;;23.31;29.78;98254.47;5026205;28;20395;-91
2023/03/05 08:32:31;;;;;;;;;;;;;;;23.86;29.14;98250.50;5028797;28;19924;-89
2023/03/05 08:35:00;;;;;;;;;;;;;;;23.77;29.44;98250.75;5041059;28;19917;-87
2023/03/05 08:37:25;;;;;;;;;;;;;;;23.76;29.15;98249.09;5028035;28;19957;-89
2023/03/05 08:39:51;;;;;;;;;;;;;;;23.69;29.10;98247.50;5020200;28;19925;-89
2023/03/05 08:42:16;;;;;;;;;;;;;;;23.81;28.94;98254.59;5003237;28;19917;-87
2023/03/05 08:44:42;;;;;;;;;;;;;;;23.64;29.41;98248.97;5020212;28;19921;-85
2023/03/05 08:47:07;;;;;;;;;;;;;;;23.34;29.29;98254.03;5001467;28;20079;-85
2023/03/05 08:49:32;;;;;;;;;;;;;;;22.90;29.30;98251.06;5035755;28;19917;-83
2023/03/05 08:51:57;;;;;;;;;;;;;;;22.32;29.66;98249.09;5036232;28;19917;-87
2023/03/05 08:54:23;;;;;;;;;;;;;;;21.83;29.91;98255.56;5017212;28;20354;-84
2023/03/05 08:56:48;;;;;;;;;;;;;;;21.12;31.07;98248.75;5003412;28;19917;-85
2023/03/05 08:59:14;;;;;;;;;;;;;;;20.61;31.93;98253.31;5007551;28;19918;-83
2023/03/05 09:01:39;;;;;;;;;;;;;;;20.34;32.90;98249.66;5011652;28;19905;-92
2023/03/05 09:04:05;;;;;;;;;;;;;;;20.01;33.78;98244.06;5058080;23;19932;-77
2023/03/05 09:06:30;;;;;;;;;;;;;;;19.78;42.32;98253.03;5017881;28;20292;-81
2023/03/05 09:08:55;;;;;;;;;;;;;;;19.51;43.40;98258.00;5019017;28;20312;-80
2023/03/05 09:11:21;;;;;;;;;;;;;;;19.33;41.27;98254.94;5018014;28;19918;-85
2023/03/05 09:13:46;;;;;;;;;;;;;;;19.19;40.22;98256.56;5038032;28;19943;-87
2023/03/05 09:16:12;;;;;;;;;;;;;;;18.99;39.75;98253.66;5020581;28;19924;-84
2023/03/05 09:18:39;;;;;;;;;;;;;;;18.80;42.24;98258.47;5018597;28;19960;-80
2023/03/05 09:21:08;;;;;;;;;;;;;;;18.67;44.92;98260.91;5017506;28;19975;-83
2023/03/05 09:23:33;;;;;;;;;;;;;;;18.56;45.99;98267.47;5001210;28;20007;-86
2023/03/05 09:25:58;;;;;;;;;;;;;;;18.52;46.90;98263.56;5002215;28;20027;-81
2023/03/05 09:28:24;;;;;;;;;;;;;;;18.54;46.66;98269.47;5037623;28;19928;-86
2023/03/05 09:30:49;;;;;;;;;;;;;;;18.58;46.04;98265.47;5035128;28;20394;-78
2023/03/05 09:33:14;;;;;;;;;;;;;;;18.60;44.59;98263.47;5036411;28;19975;-90
2023/03/05 09:35:39;;;;;;;;;;;;;;;18.74;45.64;98258.41;5020349;28;19917;-74
2023/03/05 09:38:06;;;;;;;;;;;;;;;19.02;45.95;98257.78;5035667;28;20296;-84
2023/03/05 09:40:43;;;;;;;;;;;;;;;19.27;44.97;98245.88;5005465;28;19975;-89
2023/03/05 09:43:12;;;;;;;;;;;;;;;20.07;42.76;98251.25;5021655;28;19925;-81
2023/03/05 09:45:48;;;;;;;;;;;;;;;20.70;40.07;98253.19;5015134;28;19964;-80
2023/03/05 09:48:21;;;;;;;;;;;;;;;21.24;38.98;98236.56;4983419;28;20377;-83
2023/03/05 09:50:49;;;;;;;;;;;;;;;22.04;36.36;98244.78;4981821;28;19921;-77
2023/03/05 09:53:20;;;;;;;;;;;;;;;22.02;35.41;98243.31;4996057;28;19921;-81
2023/03/05 09:55:47;;;;;;;;;;;;;;;21.73;35.40;98233.88;5032599;28;19924;-77
2023/03/05 09:58:12;;;;;;;;;;;;;;;21.57;37.71;98237.72;5000473;28;20387;-84
2023/03/05 10:00:39;;;;;;;;;;;;;;;21.42;39.21;98233.34;5018833;28;19901;-84
2023/03/05 10:03:05;;;;;;;;;;;;;;;21.25;37.93;98222.28;5025987;28;19925;-90
2023/03/05 10:06:00;;;;;;;;;;;;;;;21.03;36.69;98226.03;5033751;28;19933;-94
2023/03/05 10:08:29;;;;;;;;;;;;;;;20.81;36.83;98218.19;4938787;29;19929;-85
2023/03/05 10:10:55;;;;;;;;;;;;;;;20.66;37.02;98215.63;4936842;29;19919;-83
2023/03/05 10:13:23;;;;;;;;;;;;;;;20.57;37.40;98216.78;4906236;29;20330;-81
2023/03/05 10:15:52;;;;;;;;;;;;;;;20.43;41.48;98211.38;4920814;29;19922;-77
2023/03/05 10:18:23;;;;;;;;;;;;;;;20.34;44.88;98209.09;4903361;29;19919;-79
2023/03/05 10:20:55;;;;;;;;;;;;;;;20.29;47.02;98201.72;4905431;29;19946;-89
2023/03/05 10:23:23;;;;;;;;;;;;;;;20.27;48.50;98195.75;4918412;29;19997;-80
2023/03/05 10:25:59;;;;;;;;;;;;;;;20.23;49.21;98194.53;4934733;29;20029;-88
2023/03/05 10:28:24;;;;;;;;;;;;;;;21.11;52.21;98189.56;4904622;29;19919;-89
2023/03/05 10:31:02;;;;;;;;;;;;;;;21.21;46.28;98183.06;4931539;29;19899;-92
2023/03/05 10:33:30;;;;;;;;;;;;;;;21.19;45.62;98174.47;5261186;23;19925;-90
2023/03/05 10:36:17;;;;;;;;;;;;;;;21.18;45.67;98167.53;5020396;28;19921;-87
2023/03/05 10:38:55;;;;;;;;;;;;;;;21.27;52.85;98166.34;5004506;28;19984;-82
2023/03/05 10:41:31;;;;;;;;;;;;;;;21.60;48.25;98155.81;5034257;28;19960;-81
2023/03/05 10:44:14;;;;;;;;;;;;;;;21.64;45.13;98156.22;5034171;28;19921;-83
2023/03/05 10:46:39;;;;;;;;;;;;;;;21.69;43.65;98154.56;5015570;28;19925;-83
2023/03/05 10:49:40;;;;;;;;;;;;;;;21.84;41.79;98146.44;5032654;28;19921;-82
2023/03/05 10:52:14;;;;;;;;;;;;;;;21.99;40.02;98138.25;4955028;29;19930;-85
2023/03/05 10:54:41;;;;;;;;;;;;;;;22.03;39.48;98128.84;4936962;29;20374;-86
2023/03/05 10:57:17;;;;;;;;;;;;;;;22.02;37.74;98127.19;4960923;29;19918;-85
2023/03/05 10:59:52;;;;;;;;;;;;;;;22.01;37.17;98122.09;4941876;29;19930;-90
2023/03/05 11:02:17;;;;;;;;;;;;;;;22.03;36.43;98114.75;4954346;29;19918;-87
2023/03/05 11:04:43;;;;;;;;;;;;;;;22.01;35.92;98108.81;4937863;29;19950;-88
2023/03/05 11:07:14;;;;;;;;;;;;;;;22.03;34.77;98096.97;4955478;28;19950;-86
2023/03/05 11:09:40;;;;;;;;;;;;;;;21.99;34.80;98100.22;4941749;28;19976;-80
2023/03/05 11:12:05;;;;;;;;;;;;;;;21.94;33.84;98089.41;4921171;29;19969;-79
2023/03/05 11:14:32;;;;;;;;;;;;;;;21.65;34.05;98102.91;4953975;29;20014;-86
2023/03/05 11:16:59;;;;;;;;;;;;;;;21.41;34.43;98096.31;4935882;29;19934;-86
2023/03/05 11:19:28;;;;;;;;;;;;;;;21.11;38.62;98094.03;4937462;29;19926;-79
2023/03/05 11:22:13;;;;;;;;;;;;;;;20.76;36.42;98099.44;4954014;29;19918;-79
2023/03/05 11:24:40;;;;;;;;;;;;;;;20.43;36.21;98091.28;4935204;29;19950;-79
2023/03/05 11:27:25;;;;;;;;;;;;;;;20.14;43.95;98089.69;5032011;28;19939;-76
2023/03/05 11:29:51;;;;;;;;;;;;;;;19.73;45.77;98093.03;5021090;28;20305;-85
2023/03/05 11:32:19;;;;;;;;;;;;;;;19.47;46.95;98083.88;4999403;28;19924;-77
2023/03/05 11:34:45;;;;;;;;;;;;;;;19.28;43.99;98082.69;4997376;28;20016;-77
2023/03/05 11:37:19;;;;;;;;;;;;;;;19.14;42.91;98081.72;4996387;28;20414;-78
2023/03/05 11:39:45;;;;;;;;;;;;;;;18.98;42.08;98074.84;4994427;28;19921;-80
2023/03/05 11:42:14;;;;;;;;;;;;;;;18.86;41.62;98078.97;4997167;28;19928;-78
2023/03/05 11:44:42;;;;;;;;;;;;;;;18.66;41.25;98078.69;4997547;28;20871;-76
2023/03/05 11:47:26;;;;;;;;;;;;;;;18.54;41.03;98075.72;5013553;28;19917;-77
2023/03/05 11:49:54;;;;;;;;;;;;;;;18.42;40.75;98076.19;5031656;28;19917;-77
2023/03/05 11:52:21;;;;;;;;;;;;;;;18.36;40.46;98070.78;5010839;28;19983;-77
2023/03/05 11:54:56;;;;;;;;;;;;;;;18.27;40.19;98070.91;4994104;28;19929;-77
2023/03/05 11:57:21;;;;;;;;;;;;;;;18.16;39.89;98066.06;5012239;28;19917;-78
2023/03/05 11:59:47;;;;;;;;;;;;;;;18.07;40.07;98070.66;4978163;28;20362;-77
2023/03/05 12:02:19;;;;;;;;;;;;;;;18.00;40.00;98074.19;4993987;28;19923;-77
2023/03/05 12:04:45;;;;;;;;;;;;;;;17.86;40.00;98066.03;4994299;28;19947;-76
2023/03/05 12:07:11;;;;;;;;;;;;;;;17.76;40.40;98064.63;4993911;28;19972;-77
2023/03/05 12:09:39;;;;;;;;;;;;;;;17.67;40.55;98063.91;4977915;28;19922;-77
2023/03/05 12:12:17;;;;;;;;;;;;;;;17.57;40.36;98060.69;4978272;28;19924;-79
2023/03/05 12:14:48;;;;;;;;;;;;;;;17.47;40.52;98053.84;5011531;28;19975;-77
2023/03/05 12:17:16;;;;;;;;;;;;;;;17.39;40.62;98064.44;4978224;28;20435;-77
2023/03/05 12:19:47;;;;;;;;;;;;;;;17.32;40.58;98061.72;4977786;28;19921;-77
2023/03/05 12:22:23;;;;;;;;;;;;;;;17.26;40.75;98064.25;4994742;28;19968;-78
2023/03/05 12:24:48;;;;;;;;;;;;;;;17.22;40.71;98052.38;4977816;28;19964;-77
2023/03/05 12:27:15;;;;;;;;;;;;;;;17.20;40.88;98057.84;4977738;28;19968;-78
2023/03/05 12:29:42;;;;;;;;;;;;;;;17.21;40.71;98058.69;4997604;28;20308;-77
2023/03/05 12:32:30;;;;;;;;;;;;;;;17.24;40.68;98059.13;4981510;28;19918;-78
2023/03/05 12:34:58;;;;;;;;;;;;;;;17.25;40.91;98050.25;5015282;28;19932;-78
2023/03/05 12:37:24;;;;;;;;;;;;;;;17.28;40.84;98049.03;4997263;28;19928;-78
2023/03/05 12:39:56;;;;;;;;;;;;;;;17.31;40.76;98043.41;5019066;28;19917;-78
2023/03/05 12:42:27;;;;;;;;;;;;;;;17.33;40.87;98049.31;5000973;28;19925;-78
2023/03/05 12:45:25;;;;;;;;;;;;;;;17.31;40.51;98043.41;5017193;28;19995;-78
2023/03/05 12:47:53;;;;;;;;;;;;;;;17.27;39.82;98034.25;4974233;28;19925;-77
2023/03/05 12:50:28;;;;;;;;;;;;;;;17.19;40.15;98035.13;4973782;28;19945;-78